sensor_id;sensor_type;location;lat;lon;timestamp;pressure;altitude;pressure_sealevel;temperature;humidity
45621;BME280;31345;51.522;10.702;2023-04-26T00:01:01;99082.03;;;1.98;100.00
45621;BME280;31345;51.522;10.702;2023-04-26T00:03:35;99080.63;;;2.17;100.00
45621;BME280;31345;51.522;10.702;2023-04-26T00:06:08;99088.38;;;2.17;100.00
45621;BME280;31345;51.522;10.702;2023-04-26T00:08:41;99086.78;;;2.12;100.00
45621;BME280;31345;51.522;10.702;2023-04-26T00:11:13;99089.00;;;2.23;100.00
45621;BME280;31345;51.522;10.702;2023-04-26T00:13:42;99094.63;;;2.08;100.00
45621;BME280;31345;51.522;10.702;2023-04-26T00:16:12;99091.88;;;1.85;100.00
45621;BME280;31345;51.522;10.702;2023-04-26T00:18:44;99104.56;;;1.63;100.00
45621;BME280;31345;51.522;10.702;2023-04-26T00:21:17;99105.91;;;1.77;100.00
45621;BME280;31345;51.522;10.702;2023-04-26T00:23:50;99101.31;;;1.86;100.00
45621;BME280;31345;51.522;10.702;2023-04-26T00:26:23;99105.56;;;1.57;100.00
45621;BME280;31345;51.522;10.702;2023-04-26T00:28:57;99108.63;;;1.72;100.00
45621;BME280;31345;51.522;10.702;2023-04-26T00:31:30;99104.81;;;1.84;100.00
45621;BME280;31345;51.522;10.702;2023-04-26T00:34:02;99103.63;;;1.66;100.00
45621;BME280;31345;51.522;10.702;2023-04-26T00:36:35;99100.78;;;1.45;100.00
45621;BME280;31345;51.522;10.702;2023-04-26T00:39:03;99112.28;;;1.33;100.00
45621;BME280;31345;51.522;10.702;2023-04-26T00:41:30;99109.75;;;1.31;100.00
45621;BME280;31345;51.522;10.702;2023-04-26T00:44:04;99104.50;;;1.34;100.00
45621;BME280;31345;51.522;10.702;2023-04-26T00:46:37;99105.28;;;1.68;100.00
45621;BME280;31345;51.522;10.702;2023-04-26T00:49:14;99100.06;;;1.40;100.00
45621;BME280;31345;51.522;10.702;2023-04-26T00:51:42;99109.13;;;1.23;100.00
45621;BME280;31345;51.522;10.702;2023-04-26T00:54:11;99102.25;;;1.54;100.00
45621;BME280;31345;51.522;10.702;2023-04-26T00:56:43;99108.88;;;1.31;100.00
45621;BME280;31345;51.522;10.702;2023-04-26T00:59:13;99101.13;;;1.32;100.00
45621;BME280;31345;51.522;10.702;2023-04-26T01:01:40;99109.97;;;1.22;100.00
45621;BME280;31345;51.522;10.702;2023-04-26T01:04:13;99107.66;;;1.13;100.00
45621;BME280;31345;51.522;10.702;2023-04-26T01:06:46;99108.84;;;1.01;100.00
45621;BME280;31345;51.522;10.702;2023-04-26T01:09:19;99110.94;;;1.18;100.00
45621;BME280;31345;51.522;10.702;2023-04-26T01:11:47;99104.25;;;1.44;100.00
45621;BME280;31345;51.522;10.702;2023-04-26T01:14:21;99109.41;;;1.44;100.00
45621;BME280;31345;51.522;10.702;2023-04-26T01:16:49;99104.56;;;1.63;100.00
45621;BME280;31345;51.522;10.702;2023-04-26T01:19:17;99109.94;;;1.23;100.00
45621;BME280;31345;51.522;10.702;2023-04-26T01:21:50;99114.66;;;1.07;100.00
45621;BME280;31345;51.522;10.702;2023-04-26T01:24:24;99115.47;;;1.09;100.00
45621;BME280;31345;51.522;10.702;2023-04-26T01:26:56;99113.09;;;1.02;100.00
45621;BME280;31345;51.522;10.702;2023-04-26T01:29:29;99117.47;;;1.31;100.00
45621;BME280;31345;51.522;10.702;2023-04-26T01:32:03;99116.22;;;1.45;100.00
45621;BME280;31345;51.522;10.702;2023-04-26T01:34:36;99119.41;;;1.55;100.00
45621;BME280;31345;51.522;10.702;2023-04-26T01:37:08;99115.03;;;1.58;100.00
45621;BME280;31345;51.522;10.702;2023-04-26T01:39:38;99119.28;;;1.59;100.00
45621;BME280;31345;51.522;10.702;2023-04-26T01:42:10;99120.34;;;1.52;100.00
45621;BME280;31345;51.522;10.702;2023-04-26T01:44:43;99115.19;;;1.52;100.00
45621;BME280;31345;51.522;10.702;2023-04-26T01:47:11;99118.66;;;1.51;100.00
45621;BME280;31345;51.522;10.702;2023-04-26T01:49:43;99125.31;;;1.58;100.00
45621;BME280;31345;51.522;10.702;2023-04-26T01:52:16;99121.03;;;1.57;100.00
45621;BME280;31345;51.522;10.702;2023-04-26T01:54:46;99125.09;;;1.66;100.00
45621;BME280;31345;51.522;10.702;2023-04-26T01:57:14;99121.59;;;1.69;100.00
45621;BME280;31345;51.522;10.702;2023-04-26T01:59:42;99118.31;;;1.64;100.00
45621;BME280;31345;51.522;10.702;2023-04-26T02:02:16;99130.28;;;1.65;100.00
45621;BME280;31345;51.522;10.702;2023-04-26T02:04:43;99132.28;;;1.55;100.00
45621;BME280;31345;51.522;10.702;2023-04-26T02:07:11;99131.38;;;1.56;100.00
45621;BME280;31345;51.522;10.702;2023-04-26T02:09:51;99128.69;;;1.60;100.00
45621;BME280;31345;51.522;10.702;2023-04-26T02:12:19;99124.78;;;1.47;100.00
45621;BME280;31345;51.522;10.702;2023-04-26T02:14:51;99124.00;;;1.43;100.00
45621;BME280;31345;51.522;10.702;2023-04-26T02:17:19;99124.13;;;1.40;100.00
45621;BME280;31345;51.522;10.702;2023-04-26T02:19:53;99124.13;;;1.40;100.00
45621;BME280;31345;51.522;10.702;2023-04-26T02:22:20;99124.91;;;1.42;100.00
45621;BME280;31345;51.522;10.702;2023-04-26T02:24:51;99123.53;;;1.30;100.00
45621;BME280;31345;51.522;10.702;2023-04-26T02:27:19;99120.94;;;1.30;100.00
45621;BME280;31345;51.522;10.702;2023-04-26T02:29:51;99122.56;;;1.34;100.00
45621;BME280;31345;51.522;10.702;2023-04-26T02:32:24;99126.97;;;1.29;100.00
45621;BME280;31345;51.522;10.702;2023-04-26T02:34:56;99126.09;;;1.30;100.00
45621;BME280;31345;51.522;10.702;2023-04-26T02:37:29;99126.63;;;1.42;100.00
45621;BME280;31345;51.522;10.702;2023-04-26T02:40:06;99125.72;;;1.44;100.00
45621;BME280;31345;51.522;10.702;2023-04-26T02:42:41;99126.13;;;1.60;100.00
45621;BME280;31345;51.522;10.702;2023-04-26T02:45:09;99122.63;;;1.61;100.00
45621;BME280;31345;51.522;10.702;2023-04-26T02:47:41;99125.59;;;1.47;100.00
45621;BME280;31345;51.522;10.702;2023-04-26T02:50:14;99131.03;;;1.38;100.00
45621;BME280;31345;51.522;10.702;2023-04-26T02:52:47;99126.75;;;1.04;100.00
45621;BME280;31345;51.522;10.702;2023-04-26T02:55:16;99117.41;;;1.01;100.00
45621;BME280;31345;51.522;10.702;2023-04-26T02:57:44;99125.03;;;1.04;100.00
45621;BME280;31345;51.522;10.702;2023-04-26T03:00:17;99126.38;;;1.19;100.00
45621;BME280;31345;51.522;10.702;2023-04-26T03:02:50;99123.47;;;0.98;100.00
45621;BME280;31345;51.522;10.702;2023-04-26T03:05:22;99125.66;;;1.14;100.00
45621;BME280;31345;51.522;10.702;2023-04-26T03:07:56;99127.53;;;1.07;100.00
45621;BME280;31345;51.522;10.702;2023-04-26T03:10:29;99130.94;;;1.08;100.00
45621;BME280;31345;51.522;10.702;2023-04-26T03:12:57;99127.25;;;1.18;100.00
45621;BME280;31345;51.522;10.702;2023-04-26T03:15:30;99123.09;;;1.13;100.00
45621;BME280;31345;51.522;10.702;2023-04-26T03:17:58;99119.75;;;1.10;100.00
45621;BME280;31345;51.522;10.702;2023-04-26T03:20:32;99118.84;;;1.12;100.00
45621;BME280;31345;51.522;10.702;2023-04-26T03:23:04;99119.78;;;1.09;100.00
45621;BME280;31345;51.522;10.702;2023-04-26T03:25:39;99115.31;;;1.16;100.00
45621;BME280;31345;51.522;10.702;2023-04-26T03:28:11;99117.25;;;1.07;100.00
45621;BME280;31345;51.522;10.702;2023-04-26T03:30:44;99104.97;;;1.17;100.00
45621;BME280;31345;51.522;10.702;2023-04-26T03:33:17;99118.00;;;1.11;100.00
45621;BME280;31345;51.522;10.702;2023-04-26T03:35:49;99120.91;;;0.98;100.00
45621;BME280;31345;51.522;10.702;2023-04-26T03:38:22;99124.41;;;0.96;100.00
45621;BME280;31345;51.522;10.702;2023-04-26T03:40:56;99131.63;;;0.81;100.00
45621;BME280;31345;51.522;10.702;2023-04-26T03:43:29;99129.91;;;0.82;100.00
45621;BME280;31345;51.522;10.702;2023-04-26T03:46:05;99125.44;;;0.89;100.00
45621;BME280;31345;51.522;10.702;2023-04-26T03:48:38;99128.09;;;0.85;100.00
45621;BME280;31345;51.522;10.702;2023-04-26T03:51:11;99129.94;;;0.80;100.00
45621;BME280;31345;51.522;10.702;2023-04-26T03:53:44;99130.78;;;0.81;100.00
45621;BME280;31345;51.522;10.702;2023-04-26T03:56:15;99127.28;;;0.83;100.00
45621;BME280;31345;51.522;10.702;2023-04-26T03:58:43;99133.44;;;0.78;100.00
45621;BME280;31345;51.522;10.702;2023-04-26T04:01:16;99137.47;;;0.88;100.00
45621;BME280;31345;51.522;10.702;2023-04-26T04:03:45;99138.03;;;1.00;100.00
45621;BME280;31345;51.522;10.702;2023-04-26T04:06:12;99142.78;;;0.82;100.00
45621;BME280;31345;51.522;10.702;2023-04-26T04:08:44;99148.84;;;0.79;100.00
45621;BME280;31345;51.522;10.702;2023-04-26T04:11:18;99146.72;;;0.61;100.00
45621;BME280;31345;51.522;10.702;2023-04-26T04:13:46;99143.84;;;0.73;100.00
45621;BME280;31345;51.522;10.702;2023-04-26T04:16:14;99143.44;;;0.54;100.00
45621;BME280;31345;51.522;10.702;2023-04-26T04:18:42;99139.91;;;0.58;100.00
45621;BME280;31345;51.522;10.702;2023-04-26T04:21:15;99149.53;;;0.50;100.00
45621;BME280;31345;51.522;10.702;2023-04-26T04:23:48;99144.06;;;0.64;100.00
45621;BME280;31345;51.522;10.702;2023-04-26T04:26:22;99143.38;;;0.57;100.00
45621;BME280;31345;51.522;10.702;2023-04-26T04:28:54;99143.78;;;0.76;100.00
45621;BME280;31345;51.522;10.702;2023-04-26T04:31:22;99147.97;;;0.80;100.00
45621;BME280;31345;51.522;10.702;2023-04-26T04:33:50;99144.31;;;0.89;100.00
45621;BME280;31345;51.522;10.702;2023-04-26T04:36:22;99142.63;;;0.88;100.00
45621;BME280;31345;51.522;10.702;2023-04-26T04:38:56;99149.63;;;0.81;100.00
45621;BME280;31345;51.522;10.702;2023-04-26T04:41:30;99146.69;;;0.97;100.00
45621;BME280;31345;51.522;10.702;2023-04-26T04:44:05;99153.38;;;1.04;100.00
45621;BME280;31345;51.522;10.702;2023-04-26T04:46:32;99153.91;;;1.17;100.00
45621;BME280;31345;51.522;10.702;2023-04-26T04:49:00;99150.34;;;1.21;100.00
45621;BME280;31345;51.522;10.702;2023-04-26T04:51:29;99153.03;;;1.17;100.00
45621;BME280;31345;51.522;10.702;2023-04-26T04:54:08;99156.50;;;1.16;100.00
45621;BME280;31345;51.522;10.702;2023-04-26T04:56:37;99153.63;;;1.28;100.00
45621;BME280;31345;51.522;10.702;2023-04-26T04:59:11;99160.97;;;1.42;100.00
45621;BME280;31345;51.522;10.702;2023-04-26T05:01:45;99155.56;;;1.52;100.00
45621;BME280;31345;51.522;10.702;2023-04-26T05:04:14;99160.63;;;1.55;100.00
45621;BME280;31345;51.522;10.702;2023-04-26T05:06:48;99149.34;;;1.59;100.00
45621;BME280;31345;51.522;10.702;2023-04-26T05:09:22;99153.69;;;1.58;100.00
45621;BME280;31345;51.522;10.702;2023-04-26T05:11:51;99160.25;;;1.69;100.00
45621;BME280;31345;51.522;10.702;2023-04-26T05:14:19;99155.63;;;1.80;100.00
45621;BME280;31345;51.522;10.702;2023-04-26T05:16:47;99158.16;;;1.82;100.00
45621;BME280;31345;51.522;10.702;2023-04-26T05:19:14;99160.50;;;1.90;100.00
45621;BME280;31345;51.522;10.702;2023-04-26T05:21:44;99164.53;;;2.00;100.00
45621;BME280;31345;51.522;10.702;2023-04-26T05:24:17;99173.81;;;2.06;100.00
45621;BME280;31345;51.522;10.702;2023-04-26T05:26:49;99175.53;;;2.05;100.00
45621;BME280;31345;51.522;10.702;2023-04-26T05:29:33;99173.19;;;2.26;100.00
45621;BME280;31345;51.522;10.702;2023-04-26T05:32:00;99174.63;;;2.36;100.00
45621;BME280;31345;51.522;10.702;2023-04-26T05:34:45;99173.34;;;2.50;100.00
45621;BME280;31345;51.522;10.702;2023-04-26T05:37:16;99172.97;;;2.62;100.00
45621;BME280;31345;51.522;10.702;2023-04-26T05:39:48;99181.28;;;2.72;100.00
45621;BME280;31345;51.522;10.702;2023-04-26T05:42:22;99180.19;;;2.78;100.00
45621;BME280;31345;51.522;10.702;2023-04-26T05:44:57;99190.19;;;2.89;100.00
45621;BME280;31345;51.522;10.702;2023-04-26T05:47:30;99189.00;;;2.99;100.00
45621;BME280;31345;51.522;10.702;2023-04-26T05:49:57;99195.88;;;3.00;100.00
45621;BME280;31345;51.522;10.702;2023-04-26T05:52:30;99196.31;;;3.12;100.00
45621;BME280;31345;51.522;10.702;2023-04-26T05:55:03;99200.94;;;3.29;100.00
45621;BME280;31345;51.522;10.702;2023-04-26T05:57:32;99196.09;;;3.45;100.00
45621;BME280;31345;51.522;10.702;2023-04-26T06:00:02;99194.81;;;3.57;100.00
45621;BME280;31345;51.522;10.702;2023-04-26T06:02:40;99199.47;;;3.71;100.00
45621;BME280;31345;51.522;10.702;2023-04-26T06:05:19;99195.72;;;3.80;100.00
45621;BME280;31345;51.522;10.702;2023-04-26T06:07:52;99182.34;;;3.92;100.00
45621;BME280;31345;51.522;10.702;2023-04-26T06:10:20;99196.28;;;4.12;100.00
45621;BME280;31345;51.522;10.702;2023-04-26T06:12:47;99189.00;;;4.22;100.00
45621;BME280;31345;51.522;10.702;2023-04-26T06:15:23;99187.94;;;4.28;100.00
45621;BME280;31345;51.522;10.702;2023-04-26T06:17:54;99191.06;;;4.36;100.00
45621;BME280;31345;51.522;10.702;2023-04-26T06:20:27;99191.00;;;4.38;100.00
45621;BME280;31345;51.522;10.702;2023-04-26T06:22:59;99195.50;;;4.56;100.00
45621;BME280;31345;51.522;10.702;2023-04-26T06:25:32;99200.13;;;4.70;100.00
45621;BME280;31345;51.522;10.702;2023-04-26T06:28:05;99202.03;;;4.65;100.00
45621;BME280;31345;51.522;10.702;2023-04-26T06:30:41;99200.78;;;4.76;100.00
45621;BME280;31345;51.522;10.702;2023-04-26T06:33:09;99201.34;;;4.82;100.00
45621;BME280;31345;51.522;10.702;2023-04-26T06:35:39;99202.75;;;4.91;100.00
45621;BME280;31345;51.522;10.702;2023-04-26T06:38:12;99200.78;;;4.96;100.00
45621;BME280;31345;51.522;10.702;2023-04-26T06:40:45;99201.09;;;5.11;100.00
45621;BME280;31345;51.522;10.702;2023-04-26T06:43:18;99205.16;;;5.17;100.00
45621;BME280;31345;51.522;10.702;2023-04-26T06:46:02;99203.75;;;5.30;100.00
45621;BME280;31345;51.522;10.702;2023-04-26T06:48:34;99202.81;;;5.31;100.00
45621;BME280;31345;51.522;10.702;2023-04-26T06:51:08;99206.63;;;5.22;99.48
45621;BME280;31345;51.522;10.702;2023-04-26T06:53:41;99211.06;;;5.41;100.00
45621;BME280;31345;51.522;10.702;2023-04-26T06:56:09;99206.25;;;5.53;99.14
45621;BME280;31345;51.522;10.702;2023-04-26T06:58:57;99216.72;;;5.70;98.72
45621;BME280;31345;51.522;10.702;2023-04-26T07:01:26;99208.28;;;5.46;94.49
45621;BME280;31345;51.522;10.702;2023-04-26T07:03:59;99210.22;;;5.61;97.48
45621;BME280;31345;51.522;10.702;2023-04-26T07:06:33;99212.84;;;6.00;100.00
45621;BME280;31345;51.522;10.702;2023-04-26T07:09:05;99207.25;;;6.28;95.88
45621;BME280;31345;51.522;10.702;2023-04-26T07:11:38;99204.91;;;6.22;91.93
45621;BME280;31345;51.522;10.702;2023-04-26T07:14:11;99210.94;;;5.84;92.97
45621;BME280;31345;51.522;10.702;2023-04-26T07:16:45;99215.47;;;5.60;93.21
45621;BME280;31345;51.522;10.702;2023-04-26T07:19:18;99212.34;;;5.92;94.47
45621;BME280;31345;51.522;10.702;2023-04-26T07:21:51;99218.63;;;6.26;93.35
45621;BME280;31345;51.522;10.702;2023-04-26T07:24:19;99225.06;;;5.98;93.31
45621;BME280;31345;51.522;10.702;2023-04-26T07:26:52;99219.72;;;6.39;94.48
45621;BME280;31345;51.522;10.702;2023-04-26T07:29:24;99219.47;;;6.63;88.35
45621;BME280;31345;51.522;10.702;2023-04-26T07:31:58;99209.31;;;6.59;90.79
45621;BME280;31345;51.522;10.702;2023-04-26T07:34:31;99215.00;;;6.67;88.82
45621;BME280;31345;51.522;10.702;2023-04-26T07:37:03;99229.47;;;6.53;89.46
45621;BME280;31345;51.522;10.702;2023-04-26T07:39:31;99220.72;;;6.37;89.54
45621;BME280;31345;51.522;10.702;2023-04-26T07:41:58;99219.13;;;6.52;90.11
45621;BME280;31345;51.522;10.702;2023-04-26T07:44:26;99211.44;;;6.31;89.90
45621;BME280;31345;51.522;10.702;2023-04-26T07:46:54;99224.81;;;6.79;93.34
45621;BME280;31345;51.522;10.702;2023-04-26T07:49:27;99220.97;;;6.50;90.05
45621;BME280;31345;51.522;10.702;2023-04-26T07:51:55;99226.34;;;6.27;90.77
45621;BME280;31345;51.522;10.702;2023-04-26T07:54:27;99224.28;;;5.96;90.74
45621;BME280;31345;51.522;10.702;2023-04-26T07:56:59;99227.66;;;6.36;90.48
45621;BME280;31345;51.522;10.702;2023-04-26T07:59:33;99220.81;;;6.72;90.69
45621;BME280;31345;51.522;10.702;2023-04-26T08:02:00;99223.53;;;7.24;87.26
45621;BME280;31345;51.522;10.702;2023-04-26T08:04:34;99220.06;;;7.05;85.00
45621;BME280;31345;51.522;10.702;2023-04-26T08:07:02;99227.75;;;6.72;86.22
45621;BME280;31345;51.522;10.702;2023-04-26T08:09:34;99219.22;;;6.87;86.19
45621;BME280;31345;51.522;10.702;2023-04-26T08:12:03;99227.09;;;6.86;85.29
45621;BME280;31345;51.522;10.702;2023-04-26T08:14:35;99218.41;;;7.04;83.66
45621;BME280;31345;51.522;10.702;2023-04-26T08:17:08;99222.44;;;7.28;82.37
45621;BME280;31345;51.522;10.702;2023-04-26T08:19:43;99221.81;;;7.76;87.40
45621;BME280;31345;51.522;10.702;2023-04-26T08:22:15;99226.19;;;7.22;82.29
45621;BME280;31345;51.522;10.702;2023-04-26T08:24:46;99227.09;;;6.86;81.97
45621;BME280;31345;51.522;10.702;2023-04-26T08:27:20;99219.53;;;6.81;82.23
45621;BME280;31345;51.522;10.702;2023-04-26T08:29:52;99218.09;;;7.28;79.99
45621;BME280;31345;51.522;10.702;2023-04-26T08:32:25;99220.44;;;7.51;76.67
45621;BME280;31345;51.522;10.702;2023-04-26T08:34:59;99218.25;;;7.61;75.63
45621;BME280;31345;51.522;10.702;2023-04-26T08:37:32;99211.38;;;7.60;76.20
45621;BME280;31345;51.522;10.702;2023-04-26T08:40:01;99213.34;;;7.88;74.48
45621;BME280;31345;51.522;10.702;2023-04-26T08:42:38;99205.25;;;8.11;73.79
45621;BME280;31345;51.522;10.702;2023-04-26T08:45:11;99210.72;;;8.38;77.55
45621;BME280;31345;51.522;10.702;2023-04-26T08:47:46;99209.38;;;8.31;72.65
45621;BME280;31345;51.522;10.702;2023-04-26T08:50:22;99205.22;;;7.94;70.37
45621;BME280;31345;51.522;10.702;2023-04-26T08:52:55;99211.72;;;7.69;73.79
45621;BME280;31345;51.522;10.702;2023-04-26T08:55:27;99213.63;;;8.00;76.12
45621;BME280;31345;51.522;10.702;2023-04-26T08:58:01;99208.50;;;7.98;67.98
45621;BME280;31345;51.522;10.702;2023-04-26T09:00:35;99205.56;;;8.20;71.37
45621;BME280;31345;51.522;10.702;2023-04-26T09:03:08;99212.97;;;8.12;70.47
45621;BME280;31345;51.522;10.702;2023-04-26T09:05:38;99214.97;;;7.91;71.33
45621;BME280;31345;51.522;10.702;2023-04-26T09:08:15;99225.66;;;7.68;76.40
45621;BME280;31345;51.522;10.702;2023-04-26T09:10:48;99221.69;;;7.26;74.40
45621;BME280;31345;51.522;10.702;2023-04-26T09:13:27;99213.81;;;7.10;73.19
45621;BME280;31345;51.522;10.702;2023-04-26T09:16:00;99215.47;;;6.93;76.88
45621;BME280;31345;51.522;10.702;2023-04-26T09:18:32;99217.09;;;6.96;76.86
45621;BME280;31345;51.522;10.702;2023-04-26T09:21:03;99221.28;;;6.98;81.40
45621;BME280;31345;51.522;10.702;2023-04-26T09:23:55;99219.75;;;6.94;79.34
45621;BME280;31345;51.522;10.702;2023-04-26T09:26:28;99222.66;;;7.05;80.39
45621;BME280;31345;51.522;10.702;2023-04-26T09:29:12;99227.72;;;7.26;83.74
45621;BME280;31345;51.522;10.702;2023-04-26T09:31:46;99235.38;;;7.47;82.55
45621;BME280;31345;51.522;10.702;2023-04-26T09:34:19;99234.84;;;7.40;79.82
45621;BME280;31345;51.522;10.702;2023-04-26T09:36:54;99228.88;;;7.21;78.72
45621;BME280;31345;51.522;10.702;2023-04-26T09:39:31;99231.19;;;7.27;82.74
45621;BME280;31345;51.522;10.702;2023-04-26T09:42:04;99234.91;;;7.21;80.10
45621;BME280;31345;51.522;10.702;2023-04-26T09:44:37;99235.38;;;7.12;78.20
45621;BME280;31345;51.522;10.702;2023-04-26T09:47:10;99227.94;;;7.04;82.04
45621;BME280;31345;51.522;10.702;2023-04-26T09:49:45;99228.47;;;6.93;79.14
45621;BME280;31345;51.522;10.702;2023-04-26T09:52:20;99238.47;;;6.83;82.67
45621;BME280;31345;51.522;10.702;2023-04-26T09:54:53;99231.81;;;6.77;80.72
45621;BME280;31345;51.522;10.702;2023-04-26T09:57:26;99236.88;;;6.81;79.85
45621;BME280;31345;51.522;10.702;2023-04-26T09:59:58;99243.72;;;6.64;77.72
45621;BME280;31345;51.522;10.702;2023-04-26T10:02:32;99248.06;;;6.63;81.21
45621;BME280;31345;51.522;10.702;2023-04-26T10:05:06;99244.84;;;6.58;80.69
45621;BME280;31345;51.522;10.702;2023-04-26T10:07:36;99242.88;;;6.63;79.81
45621;BME280;31345;51.522;10.702;2023-04-26T10:10:09;99237.13;;;6.57;78.76
45621;BME280;31345;51.522;10.702;2023-04-26T10:12:43;99238.06;;;6.73;79.91
45621;BME280;31345;51.522;10.702;2023-04-26T10:15:17;99236.59;;;6.87;79.68
45621;BME280;31345;51.522;10.702;2023-04-26T10:17:50;99229.19;;;6.97;79.37
45621;BME280;31345;51.522;10.702;2023-04-26T10:20:26;99224.66;;;7.18;78.35
45621;BME280;31345;51.522;10.702;2023-04-26T10:23:01;99220.25;;;7.20;77.56
45621;BME280;31345;51.522;10.702;2023-04-26T10:25:35;99217.19;;;7.47;74.10
45621;BME280;31345;51.522;10.702;2023-04-26T10:28:09;99223.13;;;7.49;78.73
45621;BME280;31345;51.522;10.702;2023-04-26T10:30:53;99223.59;;;7.57;77.90
45621;BME280;31345;51.522;10.702;2023-04-26T10:33:26;99217.00;;;7.50;70.54
45621;BME280;31345;51.522;10.702;2023-04-26T10:36:10;99228.19;;;7.52;74.80
45621;BME280;31345;51.522;10.702;2023-04-26T10:41:50;99218.19;;;7.78;74.93
45621;BME280;31345;51.522;10.702;2023-04-26T10:44:39;99214.47;;;8.00;72.17
45621;BME280;31345;51.522;10.702;2023-04-26T10:47:28;99221.38;;;8.01;73.06
45621;BME280;31345;51.522;10.702;2023-04-26T10:50:02;99215.31;;;8.01;73.76
45621;BME280;31345;51.522;10.702;2023-04-26T10:52:37;99213.78;;;7.97;72.68
45621;BME280;31345;51.522;10.702;2023-04-26T10:55:10;99215.56;;;8.12;70.72
45621;BME280;31345;51.522;10.702;2023-04-26T10:57:51;99211.47;;;8.24;72.80
45621;BME280;31345;51.522;10.702;2023-04-26T11:00:29;99211.97;;;8.31;70.93
45621;BME280;31345;51.522;10.702;2023-04-26T11:03:04;99214.34;;;8.36;70.87
45621;BME280;31345;51.522;10.702;2023-04-26T11:05:50;99212.31;;;8.57;67.29
45621;BME280;31345;51.522;10.702;2023-04-26T11:08:26;99205.72;;;9.13;70.11
45621;BME280;31345;51.522;10.702;2023-04-26T11:11:06;99206.97;;;9.21;69.85
45621;BME280;31345;51.522;10.702;2023-04-26T11:13:42;99203.31;;;9.69;67.02
45621;BME280;31345;51.522;10.702;2023-04-26T11:16:15;99205.81;;;10.14;66.25
45621;BME280;31345;51.522;10.702;2023-04-26T11:18:48;99201.91;;;9.93;63.22
45621;BME280;31345;51.522;10.702;2023-04-26T11:21:25;99204.50;;;9.93;66.46
45621;BME280;31345;51.522;10.702;2023-04-26T11:23:59;99193.13;;;9.50;60.86
45621;BME280;31345;51.522;10.702;2023-04-26T11:26:32;99200.47;;;8.98;66.30
45621;BME280;31345;51.522;10.702;2023-04-26T11:29:01;99200.44;;;8.67;65.07
45621;BME280;31345;51.522;10.702;2023-04-26T11:31:30;99202.06;;;8.54;65.64
45621;BME280;31345;51.522;10.702;2023-04-26T11:34:03;99202.72;;;8.57;69.76
45621;BME280;31345;51.522;10.702;2023-04-26T11:36:30;99198.84;;;8.49;66.92
45621;BME280;31345;51.522;10.702;2023-04-26T11:39:04;99198.84;;;8.49;70.12
45621;BME280;31345;51.522;10.702;2023-04-26T11:41:39;99198.97;;;8.47;67.52
45621;BME280;31345;51.522;10.702;2023-04-26T11:44:11;99201.91;;;8.41;67.94
45621;BME280;31345;51.522;10.702;2023-04-26T11:46:39;99196.16;;;8.50;68.80
45621;BME280;31345;51.522;10.702;2023-04-26T11:49:11;99203.31;;;8.30;66.50
45621;BME280;31345;51.522;10.702;2023-04-26T11:51:46;99196.50;;;8.28;68.13
45621;BME280;31345;51.522;10.702;2023-04-26T11:54:26;99191.56;;;8.55;70.28
45621;BME280;31345;51.522;10.702;2023-04-26T11:57:00;99195.72;;;9.05;67.94
45621;BME280;31345;51.522;10.702;2023-04-26T11:59:40;99189.66;;;9.35;70.61
45621;BME280;31345;51.522;10.702;2023-04-26T12:02:08;99201.03;;;9.34;68.85
45621;BME280;31345;51.522;10.702;2023-04-26T12:04:41;99200.38;;;8.99;64.26
45621;BME280;31345;51.522;10.702;2023-04-26T12:07:09;99194.44;;;9.12;69.21
45621;BME280;31345;51.522;10.702;2023-04-26T12:09:42;99205.19;;;9.22;68.46
45621;BME280;31345;51.522;10.702;2023-04-26T12:12:15;99198.22;;;8.92;64.64
45621;BME280;31345;51.522;10.702;2023-04-26T12:14:49;99201.13;;;8.71;63.86
45621;BME280;31345;51.522;10.702;2023-04-26T12:17:17;99201.28;;;8.68;64.90
45621;BME280;31345;51.522;10.702;2023-04-26T12:19:49;99210.25;;;8.94;67.59
45621;BME280;31345;51.522;10.702;2023-04-26T12:22:22;99203.03;;;9.29;69.26
45621;BME280;31345;51.522;10.702;2023-04-26T12:25:03;99198.91;;;9.84;64.87
45621;BME280;31345;51.522;10.702;2023-04-26T12:27:36;99199.66;;;9.72;65.50
45621;BME280;31345;51.522;10.702;2023-04-26T12:30:11;99198.81;;;9.71;61.27
45621;BME280;31345;51.522;10.702;2023-04-26T12:32:44;99191.78;;;9.43;60.40
45621;BME280;31345;51.522;10.702;2023-04-26T12:35:16;99186.78;;;9.54;64.97
45621;BME280;31345;51.522;10.702;2023-04-26T12:37:49;99193.59;;;9.71;66.37
45621;BME280;31345;51.522;10.702;2023-04-26T12:40:23;99187.44;;;9.43;65.94
45621;BME280;31345;51.522;10.702;2023-04-26T12:42:56;99196.06;;;9.29;64.34
45621;BME280;31345;51.522;10.702;2023-04-26T12:45:33;99193.03;;;9.06;68.21
45621;BME280;31345;51.522;10.702;2023-04-26T12:54:22;99193.56;;;8.50;63.35
45621;BME280;31345;51.522;10.702;2023-04-26T12:56:49;99196.69;;;8.41;68.05
45621;BME280;31345;51.522;10.702;2023-04-26T12:59:22;99195.34;;;8.50;69.45
45621;BME280;31345;51.522;10.702;2023-04-26T13:01:57;99201.53;;;8.79;67.65
45621;BME280;31345;51.522;10.702;2023-04-26T13:04:24;99192.13;;;9.07;65.50
45621;BME280;31345;51.522;10.702;2023-04-26T13:09:44;99185.75;;;9.42;62.09
45621;BME280;31345;51.522;10.702;2023-04-26T13:12:17;99190.88;;;9.58;65.08
45621;BME280;31345;51.522;10.702;2023-04-26T13:17:48;99197.03;;;9.57;66.93
45621;BME280;31345;51.522;10.702;2023-04-26T13:20:21;99194.34;;;9.59;67.39
45621;BME280;31345;51.522;10.702;2023-04-26T13:22:53;99196.31;;;9.55;65.26
45621;BME280;31345;51.522;10.702;2023-04-26T13:32:19;99206.69;;;8.95;64.66
45621;BME280;31345;51.522;10.702;2023-04-26T13:34:53;99209.75;;;8.88;66.03
45621;BME280;31345;51.522;10.702;2023-04-26T13:47:15;99207.16;;;9.18;64.79
45621;BME280;31345;51.522;10.702;2023-04-26T13:53:22;99208.69;;;9.37;62.26
45621;BME280;31345;51.522;10.702;2023-04-26T13:55:54;99209.19;;;9.28;64.23
45621;BME280;31345;51.522;10.702;2023-04-26T14:04:45;99212.16;;;8.91;62.71